Vienna, Texas
Current Conditions -  °F | °C
As of 10:35 AM on Monday 24 Nov 2014 (Local Time) from K66R Reporting Station
Clear Clear  
Wind Chill: 58°   Ceiling: Unl
Heat Index: 58°   Visibility: 10mi
Dew Point: 36°   Wind: 10mph
Humidity: 42%   Direction: 10°N
Pressure: 30.08"   Gusts: 18mph
Location:  29.3984°N, 96.8256°W
Report Text: K66R 241635Z AUTO 01009G16KT 330V030 10SM CLR 15/02 A3008 RMK AO2 T01470020
Loading
Personal Weather Stations






























Interactive Weather Map New forecast layout! Learn more

10-Day Weather Forecast

Advertisements
Track Severe Weather on mobile